Baie De Seine — FISL — position and weather

sailwx.info

Track history (hours):
 
Tides and Currents Weather Stations Pressure Air Temp Water Temp Dewpoint Dewpoint Depression Visibility Wind Speed Wind Dir Waves Ship Positions

Baie De Seine

Last reported at 2018-Jun-19 20:00 UTC. Time now 2018-Jun-19 20:20 UTC.
Position N 48°15' W 004°45'.

Length 199 m; draft 5.9 m.

Type: Ship. MMSI: 226338000.

Date/timePositionNaut miles runAvg speedWind from/ knotsBaromVisibWave heightAir tempDewpointWater temp
2018-Jun-19 20:00N 48°15' W 004°45'816.9
2018-Jun-19 19:31N 48°23' W 004°49'815.2
2018-Jun-19 19:00N 48°30' W 004°52'918.6
2018-Jun-19 18:30N 48°39' W 004°46'919.1
2018-Jun-19 18:01N 48°46' W 004°36'9021.2
2018-Jun-19 13:45N 49°52' W 003°02'619.9
2018-Jun-19 13:28N 49°56' W 002°56'7618.3
2018-Jun-19 09:17N 50°33' W 001°11'517.6
2018-Jun-19 09:00N 50°36' W 001°05'815.5
2018-Jun-19 08:30N 50°42' W 000°59'714.9
2018-Jun-19 08:00N 50°48' W 001°07'1 2.3
2018-Jun-19 07:29N 50°49' W 001°06'0 0.0
2018-Jun-19 06:59N 50°49' W 001°06'0 0.0
2018-Jun-19 06:29N 50°49' W 001°06'0 0.0
2018-Jun-19 06:00N 50°49' W 001°06'0 0.0
2018-Jun-19 05:30N 50°49' W 001°06'0 0.0
2018-Jun-19 05:00N 50°49' W 001°06'0 0.0
2018-Jun-19 04:30N 50°49' W 001°06'0 0.0
2018-Jun-19 04:00N 50°49' W 001°06'0 0.0
2018-Jun-19 03:30N 50°49' W 001°06'0 0.0
2018-Jun-19 03:00N 50°49' W 001°06'0 0.0
2018-Jun-19 02:30N 50°49' W 001°06'0 0.0
2018-Jun-19 02:00N 50°49' W 001°06'0 0.0
2018-Jun-19 01:30N 50°49' W 001°06'0 0.0
2018-Jun-19 01:00N 50°49' W 001°06'0 0.0
2018-Jun-19 00:30N 50°49' W 001°06'0 0.0
2018-Jun-19 00:00N 50°49' W 001°06'0 0.0
2018-Jun-18 23:30N 50°49' W 001°06'0 0.0
2018-Jun-18 23:00N 50°49' W 001°06'0 0.0
2018-Jun-18 22:30N 50°49' W 001°06'0 0.0
2018-Jun-18 22:00N 50°49' W 001°06'0 0.0
2018-Jun-18 21:30N 50°49' W 001°06'0 0.0
2018-Jun-18 21:00N 50°49' W 001°06'0 0.0
2018-Jun-18 20:30N 50°49' W 001°06'0 0.0
2018-Jun-18 20:00N 50°49' W 001°06'1 1.2
2018-Jun-18 19:31N 50°49' W 001°07'510.9
2018-Jun-18 19:00N 50°44' W 001°03'510.8
2018-Jun-18 18:31N 50°38' W 001°01'917.0
2018-Jun-18 17:58N 50°32' W 001°12'5315.5
2018-Jun-18 14:31N 49°58' W 002°16'2119.8
2018-Jun-18 13:27N 49°50' W 002°47'1419.9
2018-Jun-18 12:46N 49°43' W 003°04'620.2
2018-Jun-18 12:29N 49°39' W 003°10'7420.5
2018-Jun-18 08:52N 48°47' W 004°31'719.7
2018-Jun-18 08:30N 48°42' W 004°39'1019.2
2018-Jun-18 08:00N 48°35' W 004°49'815.5
2018-Jun-18 07:30N 48°27' W 004°51'714.4
2018-Jun-18 07:00N 48°20' W 004°48'816.0
2018-Jun-18 06:30N 48°12' W 004°45'918.0
2018-Jun-18 06:00N 48°04' W 004°46'816.6
2018-Jun-18 05:30N 47°56' W 004°42'1520.3
2018-Jun-18 04:47N 47°41' W 004°39'820.6
2018-Jun-18 04:24N 47°33' W 004°38'820.4
2018-Jun-18 04:00N 47°25' W 004°36'1020.3
2018-Jun-18 03:30N 47°15' W 004°34'1020.2
2018-Jun-18 03:00N 47°05' W 004°31'1020.1
2018-Jun-18 02:30N 46°55' W 004°29'1019.6
2018-Jun-18 01:58N 46°45' W 004°27'1119.6
2018-Jun-18 01:25N 46°34' W 004°25'819.7
2018-Jun-18 01:00N 46°26' W 004°23'1019.7
2018-Jun-18 00:30N 46°16' W 004°21'16619.3
2018-Jun-17 15:54N 43°33' W 003°45'2 0.4
2018-Jun-17 11:40N 43°31' W 003°45'319.1
2018-Jun-17 11:30N 43°34' W 003°46'918.7
2018-Jun-17 11:00N 43°43' W 003°48'11519.6
2018-Jun-17 05:08N 45°37' W 004°12'1020.4
2018-Jun-17 04:38N 45°47' W 004°16'620.1
2018-Jun-17 04:19N 45°53' W 004°18'1019.6
2018-Jun-17 03:49N 46°03' W 004°18'3419.5
2018-Jun-17 02:06N 46°36' W 004°25'219.2
2018-Jun-17 02:00N 46°38' W 004°25'1019.4
2018-Jun-17 01:29N 46°48' W 004°27'1219.2
2018-Jun-17 00:51N 46°60' W 004°30'718.9
2018-Jun-17 00:29N 47°07' W 004°31'919.2
2018-Jun-17 00:00N 47°16' W 004°34'1019.3
2018-Jun-16 23:30N 47°25' W 004°36'1019.3
2018-Jun-16 22:59N 47°35' W 004°38'919.5
2018-Jun-16 22:30N 47°44' W 004°40'1019.6
2018-Jun-16 22:00N 47°54' W 004°42'917.2
2018-Jun-16 21:30N 48°02' W 004°46'917.1
2018-Jun-16 21:00N 48°11' W 004°45'918.9
2018-Jun-16 20:30N 48°20' W 004°48'714.6
2018-Jun-16 20:00N 48°27' W 004°51'917.7
2018-Jun-16 19:30N 48°36' W 004°49'918.0
2018-Jun-16 19:00N 48°42' W 004°40'917.5
2018-Jun-16 18:29N 48°49' W 004°30'1017.3
2018-Jun-16 17:54N 48°57' W 004°20'4218.1
2018-Jun-16 15:35N 49°28' W 003°38'2220.2
2018-Jun-16 14:30N 49°45' W 003°15'1420.4
2018-Jun-16 13:47N 49°55' W 002°60'1319.7
2018-Jun-16 13:07N 50°00' W 002°41'6318.1
2018-Jun-16 09:37N 50°31' W 001°14'216.1
2018-Jun-16 09:28N 50°32' W 001°11'816.2
2018-Jun-16 09:00N 50°37' W 001°03'612.2
2018-Jun-16 08:30N 50°44' W 001°02'611.6
2018-Jun-16 08:00N 50°49' W 001°06'0 0.4
2018-Jun-16 07:29N 50°49' W 001°06'0 0.0
2018-Jun-16 06:59N 50°49' W 001°06'0 0.0
2018-Jun-16 06:29N 50°49' W 001°06'0 0.0
2018-Jun-16 05:59N 50°49' W 001°06'0 0.0
2018-Jun-16 05:29N 50°49' W 001°06'0 0.0
2018-Jun-16 05:00N 50°49' W 001°06'1 2.7
2018-Jun-16 04:31N 50°47' W 001°07'612.9
2018-Jun-16 04:00N 50°43' W 000°59'815.9
2018-Jun-16 03:30N 50°36' W 000°53'2512.7
2018-Jun-16 01:32N 50°14' W 000°35'113.4
2018-Jun-16 01:30N 50°13' W 000°34'713.0
2018-Jun-16 00:58N 50°08' W 000°28'613.1
2018-Jun-16 00:30N 50°02' W 000°24'713.2
2018-Jun-16 00:00N 49°56' W 000°19'713.1
2018-Jun-15 23:30N 49°51' W 000°14'713.1
2018-Jun-15 23:00N 49°45' W 000°09'713.4
2018-Jun-15 22:30N 49°40' W 000°03'3 6.4
2018-Jun-15 22:00N 49°37' E 000°00'1 2.7
2018-Jun-15 21:30N 49°37' W 000°01'3 6.8
2018-Jun-15 21:00N 49°33' W 000°01'4 8.6
2018-Jun-15 20:30N 49°30' E 000°02'3 5.6
2018-Jun-15 20:00N 49°29' E 000°07'0 0.0
2018-Jun-15 19:30N 49°29' E 000°07'0 0.0
2018-Jun-15 19:00N 49°29' E 000°07'0 0.0
2018-Jun-15 18:30N 49°29' E 000°07'0 0.0
2018-Jun-15 18:00N 49°29' E 000°07'0 0.0
2018-Jun-15 17:30N 49°29' E 000°07'0 0.0
2018-Jun-15 17:00N 49°29' E 000°07'0 0.0
2018-Jun-15 16:30N 49°29' E 000°07'0 0.0
2018-Jun-15 16:00N 49°29' E 000°07'0 0.0
2018-Jun-15 15:30N 49°29' E 000°07'0 0.0
2018-Jun-15 15:00N 49°29' E 000°07'0 0.0
2018-Jun-15 14:30N 49°29' E 000°07'0 0.0
2018-Jun-15 14:00N 49°29' E 000°07'0 0.0
2018-Jun-15 13:30N 49°29' E 000°07'0 0.0
2018-Jun-15 13:00N 49°29' E 000°07'0 0.0
2018-Jun-15 12:30N 49°29' E 000°07'0 0.0
2018-Jun-15 12:00N 49°29' E 000°07'0 0.0
2018-Jun-15 11:30N 49°29' E 000°07'0 0.0
2018-Jun-15 11:01N 49°29' E 000°07'0 0.0
2018-Jun-15 10:30N 49°29' E 000°07'0 0.0
2018-Jun-15 10:00N 49°29' E 000°07'0 0.0
2018-Jun-15 09:30N 49°29' E 000°07'0 0.0
2018-Jun-15 09:00N 49°29' E 000°07'0 0.0
2018-Jun-15 08:30N 49°29' E 000°07'0 0.0
2018-Jun-15 08:00N 49°29' E 000°07'0 0.0
2018-Jun-15 07:30N 49°29' E 000°07'0 0.0
2018-Jun-15 07:00N 49°29' E 000°07'0 0.0
2018-Jun-15 06:30N 49°29' E 000°07'2 4.4
2018-Jun-15 06:00N 49°30' E 000°03'816.9
2018-Jun-15 05:30N 49°37' W 000°04'917.6
2018-Jun-15 05:00N 49°44' W 000°10'917.8
2018-Jun-15 04:30N 49°52' W 000°17'611.6
2018-Jun-15 04:00N 49°57' W 000°21'510.6
2018-Jun-15 03:30N 50°02' W 000°25'611.2
2018-Jun-15 03:00N 50°07' W 000°30'2710.6
2018-Jun-15 00:25N 50°31' W 000°50'410.7
2018-Jun-15 00:00N 50°35' W 000°53'612.5
2018-Jun-14 23:30N 50°41' W 000°57'714.9
2018-Jun-14 23:00N 50°46' W 001°05'3 5.8
2018-Jun-14 22:31N 50°49' W 001°06'0 0.0
2018-Jun-14 22:01N 50°49' W 001°06'0 0.0
2018-Jun-14 21:31N 50°49' W 001°06'0 0.0
2018-Jun-14 21:00N 50°49' W 001°06'0 0.0
2018-Jun-14 20:31N 50°49' W 001°06'0 0.0
2018-Jun-14 20:00N 50°49' W 001°06'1 2.5
2018-Jun-14 19:31N 50°48' W 001°07'612.6
2018-Jun-14 19:01N 50°43' W 000°60'713.3
2018-Jun-14 18:30N 50°36' W 001°02'5720.3
2018-Jun-14 15:41N 50°01' W 002°12'518.9
2018-Jun-14 15:26N 49°58' W 002°18'818.7
2018-Jun-14 15:00N 49°55' W 002°30'918.7
2018-Jun-14 14:30N 49°52' W 002°44'918.5
2018-Jun-14 14:00N 49°46' W 002°55'1218.7
2018-Jun-14 13:21N 49°38' W 003°10'7318.9
2018-Jun-14 09:30N 48°48' W 004°29'814.0
2018-Jun-14 08:58N 48°43' W 004°39'817.3
2018-Jun-14 08:30N 48°38' W 004°47'918.4
2018-Jun-14 08:01N 48°31' W 004°56'815.9
2018-Jun-14 07:30N 48°25' W 005°04'918.3
2018-Jun-14 07:00N 48°16' W 005°08'6419.3
2018-Jun-14 03:41N 47°14' W 004°46'420.8
2018-Jun-14 03:30N 47°10' W 004°45'1120.8
2018-Jun-14 02:59N 46°60' W 004°41'1620.7
2018-Jun-14 02:14N 46°45' W 004°33'520.8
2018-Jun-14 02:00N 46°40' W 004°32'1020.8
2018-Jun-14 01:30N 46°30' W 004°28'1121.1
2018-Jun-14 01:00N 46°20' W 004°25'16120.0
2018-Jun-13 16:56N 43°46' W 003°15'817.9
2018-Jun-13 16:30N 43°39' W 003°12'917.9
2018-Jun-13 16:00N 43°30' W 003°08'917.7
2018-Jun-13 15:30N 43°22' W 003°04'1 1.9
2018-Jun-13 15:00N 43°21' W 003°04'0 0.0
2018-Jun-13 14:30N 43°21' W 003°04'0 0.0
2018-Jun-13 14:00N 43°21' W 003°04'0 0.0
2018-Jun-13 13:30N 43°21' W 003°04'0 0.0
2018-Jun-13 13:00N 43°21' W 003°04'0 0.0
2018-Jun-13 12:30N 43°21' W 003°04'0 0.9
2018-Jun-13 12:01N 43°21' W 003°04'611.9
2018-Jun-13 11:30N 43°27' W 003°07'918.3
2018-Jun-13 11:00N 43°36' W 003°10'1019.6
2018-Jun-13 10:30N 43°45' W 003°14'1019.1
2018-Jun-13 10:00N 43°54' W 003°18'16319.4
2018-Jun-13 01:36N 46°29' W 004°30'318.6
2018-Jun-13 01:25N 46°32' W 004°31'1820.2
2018-Jun-13 00:31N 46°50' W 004°38'320.0
2018-Jun-13 00:23N 46°53' W 004°39'1719.6
2018-Jun-12 23:30N 47°09' W 004°45'3218.8
2018-Jun-12 21:47N 47°40' W 004°59'818.6
2018-Jun-12 21:21N 47°48' W 005°03'819.3
2018-Jun-12 20:56N 47°55' W 005°07'819.5
2018-Jun-12 20:30N 48°03' W 005°10'1019.7
2018-Jun-12 20:00N 48°13' W 005°08'1121.2
2018-Jun-12 19:30N 48°24' W 005°05'917.5
2018-Jun-12 19:00N 48°30' W 004°57'1020.3
2018-Jun-12 18:30N 48°38' W 004°46'1019.5
2018-Jun-12 18:00N 48°45' W 004°37'1019.2
2018-Jun-12 17:30N 48°52' W 004°27'1118.4
2018-Jun-12 16:53N 49°01' W 004°16'5317.8
2018-Jun-12 13:56N 49°42' W 003°25'1020.8
2018-Jun-12 13:28N 49°50' W 003°16'1121.8
2018-Jun-12 12:59N 49°57' W 003°04'1122.5
2018-Jun-12 12:30N 50°01' W 002°48'3222.0
2018-Jun-12 11:02N 50°14' W 002°02'121.6
2018-Jun-12 10:58N 50°15' W 002°00'1021.0
2018-Jun-12 10:30N 50°19' W 001°47'1020.3
2018-Jun-12 10:00N 50°24' W 001°33'1019.5
2018-Jun-12 09:30N 50°29' W 001°20'918.6
2018-Jun-12 09:00N 50°35' W 001°08'815.3
2018-Jun-12 08:30N 50°41' W 001°03'712.9
2018-Jun-12 08:00N 50°47' W 001°07'1 2.7
2018-Jun-12 07:30N 50°49' W 001°06'0 0.0
2018-Jun-12 07:00N 50°49' W 001°06'0 0.0
2018-Jun-12 06:30N 50°49' W 001°06'0 0.0
2018-Jun-12 06:00N 50°49' W 001°06'0 0.0
2018-Jun-12 05:30N 50°49' W 001°06'0 0.0
2018-Jun-12 05:00N 50°49' W 001°06'0 0.0
2018-Jun-12 04:30N 50°49' W 001°06'0 0.0
2018-Jun-12 04:00N 50°49' W 001°06'0 0.0
2018-Jun-12 03:30N 50°49' W 001°06'0 0.0
2018-Jun-12 03:00N 50°49' W 001°06'0 0.0
2018-Jun-12 02:30N 50°49' W 001°06'0 0.0
2018-Jun-12 02:00N 50°49' W 001°06'0 0.0
2018-Jun-12 01:30N 50°49' W 001°06'0 0.0
2018-Jun-12 01:00N 50°49' W 001°06'0 0.0
2018-Jun-12 00:30N 50°49' W 001°06'0 0.0
2018-Jun-12 00:00N 50°49' W 001°06'0 0.0
2018-Jun-11 23:30N 50°49' W 001°06'0 0.0
2018-Jun-11 23:00N 50°49' W 001°06'0 0.0
2018-Jun-11 22:30N 50°49' W 001°06'0 0.0
2018-Jun-11 22:00N 50°49' W 001°06'0 0.0
2018-Jun-11 21:30N 50°49' W 001°06'0 0.0
2018-Jun-11 21:00N 50°49' W 001°06'0 0.0
2018-Jun-11 20:30N 50°49' W 001°06'0 0.0
2018-Jun-11 20:00N 50°49' W 001°06'1 2.2
2018-Jun-11 19:30N 50°48' W 001°07'510.0
2018-Jun-11 19:00N 50°43' W 001°03'815.3
2018-Jun-11 18:30N 50°36' W 001°07'918.7
2018-Jun-11 18:01N 50°29' W 001°16'918.9
2018-Jun-11 17:30N 50°23' W 001°28'1019.2
2018-Jun-11 17:01N 50°17' W 001°40'1020.0
2018-Jun-11 16:30N 50°11' W 001°52'1120.1
2018-Jun-11 15:58N 50°04' W 002°05'1219.5
2018-Jun-11 15:20N 49°58' W 002°21'619.3
2018-Jun-11 15:00N 49°55' W 002°30'1019.1
2018-Jun-11 14:30N 49°51' W 002°44'2018.6
2018-Jun-11 13:24N 49°39' W 003°09'718.4
2018-Jun-11 13:01N 49°34' W 003°18'6418.8
2018-Jun-11 09:35N 48°50' W 004°29'319.0
2018-Jun-11 09:27N 48°48' W 004°32'818.8
2018-Jun-11 09:00N 48°42' W 004°41'918.1
2018-Jun-11 08:30N 48°35' W 004°50'816.8
2018-Jun-11 08:00N 48°29' W 004°58'815.2
2018-Jun-11 07:31N 48°23' W 005°05'917.7
2018-Jun-11 07:01N 48°14' W 005°08'918.2
2018-Jun-11 06:30N 48°05' W 005°10'1417.6
2018-Jun-11 05:43N 47°52' W 005°05'25118.9
2018-Jun-10 16:25N 43°46' W 003°50'819.0
2018-Jun-10 16:00N 43°38' W 003°47'8 1.7
2018-Jun-10 11:36N 43°31' W 003°45'219.1
2018-Jun-10 11:30N 43°33' W 003°46'1019.2
2018-Jun-10 11:00N 43°42' W 003°48'16419.1
2018-Jun-10 02:25N 46°23' W 004°37'818.4
2018-Jun-10 02:00N 46°30' W 004°39'1618.7
2018-Jun-10 01:08N 46°46' W 004°43'519.1
2018-Jun-10 00:54N 46°51' W 004°45'718.8
2018-Jun-10 00:30N 46°58' W 004°47'1218.9
2018-Jun-09 23:53N 47°10' W 004°50'919.0
2018-Jun-09 23:26N 47°18' W 004°53'2319.1
2018-Jun-09 22:15N 47°40' W 005°02'919.4
2018-Jun-09 21:48N 47°48' W 005°04'719.1
2018-Jun-09 21:27N 47°55' W 005°06'1018.5
2018-Jun-09 20:54N 48°05' W 005°10'819.0
2018-Jun-09 20:30N 48°12' W 005°08'1019.6
2018-Jun-09 20:01N 48°22' W 005°06'  
Track history (hours):
 
Tides and Currents Weather Stations Pressure Air Temp Water Temp Dewpoint Dewpoint Depression Visibility Wind Speed Wind Dir Waves Ship Positions

Baie De Seine

Last reported at 2018-Jun-19 20:00 UTC. Time now 2018-Jun-19 20:20 UTC.
Position N 48°15' W 004°45'.

Length 199 m; draft 5.9 m.

Type: Ship. MMSI: 226338000.

Date/timePositionNaut miles runAvg speedWind from/ knotsBaromVisibWave heightAir tempDewpointWater temp
2018-Jun-19 20:00N 48°15' W 004°45'816.9
2018-Jun-19 19:31N 48°23' W 004°49'815.2
2018-Jun-19 19:00N 48°30' W 004°52'918.6
2018-Jun-19 18:30N 48°39' W 004°46'919.1
2018-Jun-19 18:01N 48°46' W 004°36'9021.2
2018-Jun-19 13:45N 49°52' W 003°02'619.9
2018-Jun-19 13:28N 49°56' W 002°56'7618.3
2018-Jun-19 09:17N 50°33' W 001°11'517.6
2018-Jun-19 09:00N 50°36' W 001°05'815.5
2018-Jun-19 08:30N 50°42' W 000°59'714.9
2018-Jun-19 08:00N 50°48' W 001°07'1 2.3
2018-Jun-19 07:29N 50°49' W 001°06'0 0.0
2018-Jun-19 06:59N 50°49' W 001°06'0 0.0
2018-Jun-19 06:29N 50°49' W 001°06'0 0.0
2018-Jun-19 06:00N 50°49' W 001°06'0 0.0
2018-Jun-19 05:30N 50°49' W 001°06'0 0.0
2018-Jun-19 05:00N 50°49' W 001°06'0 0.0
2018-Jun-19 04:30N 50°49' W 001°06'0 0.0
2018-Jun-19 04:00N 50°49' W 001°06'0 0.0
2018-Jun-19 03:30N 50°49' W 001°06'0 0.0
2018-Jun-19 03:00N 50°49' W 001°06'0 0.0
2018-Jun-19 02:30N 50°49' W 001°06'0 0.0
2018-Jun-19 02:00N 50°49' W 001°06'0 0.0
2018-Jun-19 01:30N 50°49' W 001°06'0 0.0
2018-Jun-19 01:00N 50°49' W 001°06'0 0.0
2018-Jun-19 00:30N 50°49' W 001°06'0 0.0
2018-Jun-19 00:00N 50°49' W 001°06'0 0.0
2018-Jun-18 23:30N 50°49' W 001°06'0 0.0
2018-Jun-18 23:00N 50°49' W 001°06'0 0.0
2018-Jun-18 22:30N 50°49' W 001°06'0 0.0
2018-Jun-18 22:00N 50°49' W 001°06'0 0.0
2018-Jun-18 21:30N 50°49' W 001°06'0 0.0
2018-Jun-18 21:00N 50°49' W 001°06'0 0.0
2018-Jun-18 20:30N 50°49' W 001°06'0 0.0
2018-Jun-18 20:00N 50°49' W 001°06'1 1.2
2018-Jun-18 19:31N 50°49' W 001°07'510.9
2018-Jun-18 19:00N 50°44' W 001°03'510.8
2018-Jun-18 18:31N 50°38' W 001°01'917.0
2018-Jun-18 17:58N 50°32' W 001°12'5315.5
2018-Jun-18 14:31N 49°58' W 002°16'2119.8
2018-Jun-18 13:27N 49°50' W 002°47'1419.9
2018-Jun-18 12:46N 49°43' W 003°04'620.2
2018-Jun-18 12:29N 49°39' W 003°10'7420.5
2018-Jun-18 08:52N 48°47' W 004°31'719.7
2018-Jun-18 08:30N 48°42' W 004°39'1019.2
2018-Jun-18 08:00N 48°35' W 004°49'815.5
2018-Jun-18 07:30N 48°27' W 004°51'714.4
2018-Jun-18 07:00N 48°20' W 004°48'816.0
2018-Jun-18 06:30N 48°12' W 004°45'918.0
2018-Jun-18 06:00N 48°04' W 004°46'816.6
2018-Jun-18 05:30N 47°56' W 004°42'1520.3
2018-Jun-18 04:47N 47°41' W 004°39'820.6
2018-Jun-18 04:24N 47°33' W 004°38'820.4
2018-Jun-18 04:00N 47°25' W 004°36'1020.3
2018-Jun-18 03:30N 47°15' W 004°34'1020.2
2018-Jun-18 03:00N 47°05' W 004°31'1020.1
2018-Jun-18 02:30N 46°55' W 004°29'1019.6
2018-Jun-18 01:58N 46°45' W 004°27'1119.6
2018-Jun-18 01:25N 46°34' W 004°25'819.7
2018-Jun-18 01:00N 46°26' W 004°23'1019.7
2018-Jun-18 00:30N 46°16' W 004°21'16619.3
2018-Jun-17 15:54N 43°33' W 003°45'2 0.4
2018-Jun-17 11:40N 43°31' W 003°45'319.1
2018-Jun-17 11:30N 43°34' W 003°46'918.7
2018-Jun-17 11:00N 43°43' W 003°48'11519.6
2018-Jun-17 05:08N 45°37' W 004°12'1020.4
2018-Jun-17 04:38N 45°47' W 004°16'620.1
2018-Jun-17 04:19N 45°53' W 004°18'1019.6
2018-Jun-17 03:49N 46°03' W 004°18'3419.5
2018-Jun-17 02:06N 46°36' W 004°25'219.2
2018-Jun-17 02:00N 46°38' W 004°25'1019.4
2018-Jun-17 01:29N 46°48' W 004°27'1219.2
2018-Jun-17 00:51N 46°60' W 004°30'718.9
2018-Jun-17 00:29N 47°07' W 004°31'919.2
2018-Jun-17 00:00N 47°16' W 004°34'1019.3
2018-Jun-16 23:30N 47°25' W 004°36'1019.3
2018-Jun-16 22:59N 47°35' W 004°38'919.5
2018-Jun-16 22:30N 47°44' W 004°40'1019.6
2018-Jun-16 22:00N 47°54' W 004°42'917.2
2018-Jun-16 21:30N 48°02' W 004°46'917.1
2018-Jun-16 21:00N 48°11' W 004°45'918.9
2018-Jun-16 20:30N 48°20' W 004°48'714.6
2018-Jun-16 20:00N 48°27' W 004°51'917.7
2018-Jun-16 19:30N 48°36' W 004°49'918.0
2018-Jun-16 19:00N 48°42' W 004°40'917.5
2018-Jun-16 18:29N 48°49' W 004°30'1017.3
2018-Jun-16 17:54N 48°57' W 004°20'4218.1
2018-Jun-16 15:35N 49°28' W 003°38'2220.2
2018-Jun-16 14:30N 49°45' W 003°15'1420.4
2018-Jun-16 13:47N 49°55' W 002°60'1319.7
2018-Jun-16 13:07N 50°00' W 002°41'6318.1
2018-Jun-16 09:37N 50°31' W 001°14'216.1
2018-Jun-16 09:28N 50°32' W 001°11'816.2
2018-Jun-16 09:00N 50°37' W 001°03'612.2
2018-Jun-16 08:30N 50°44' W 001°02'611.6
2018-Jun-16 08:00N 50°49' W 001°06'0 0.4
2018-Jun-16 07:29N 50°49' W 001°06'0 0.0
2018-Jun-16 06:59N 50°49' W 001°06'0 0.0
2018-Jun-16 06:29N 50°49' W 001°06'0 0.0
2018-Jun-16 05:59N 50°49' W 001°06'0 0.0
2018-Jun-16 05:29N 50°49' W 001°06'0 0.0
2018-Jun-16 05:00N 50°49' W 001°06'1 2.7
2018-Jun-16 04:31N 50°47' W 001°07'612.9
2018-Jun-16 04:00N 50°43' W 000°59'815.9
2018-Jun-16 03:30N 50°36' W 000°53'2512.7
2018-Jun-16 01:32N 50°14' W 000°35'113.4
2018-Jun-16 01:30N 50°13' W 000°34'713.0
2018-Jun-16 00:58N 50°08' W 000°28'613.1
2018-Jun-16 00:30N 50°02' W 000°24'713.2
2018-Jun-16 00:00N 49°56' W 000°19'713.1
2018-Jun-15 23:30N 49°51' W 000°14'713.1
2018-Jun-15 23:00N 49°45' W 000°09'713.4
2018-Jun-15 22:30N 49°40' W 000°03'3 6.4
2018-Jun-15 22:00N 49°37' E 000°00'1 2.7
2018-Jun-15 21:30N 49°37' W 000°01'3 6.8
2018-Jun-15 21:00N 49°33' W 000°01'4 8.6
2018-Jun-15 20:30N 49°30' E 000°02'3 5.6
2018-Jun-15 20:00N 49°29' E 000°07'0 0.0
2018-Jun-15 19:30N 49°29' E 000°07'0 0.0
2018-Jun-15 19:00N 49°29' E 000°07'0 0.0
2018-Jun-15 18:30N 49°29' E 000°07'0 0.0
2018-Jun-15 18:00N 49°29' E 000°07'0 0.0
2018-Jun-15 17:30N 49°29' E 000°07'0 0.0
2018-Jun-15 17:00N 49°29' E 000°07'0 0.0
2018-Jun-15 16:30N 49°29' E 000°07'0 0.0
2018-Jun-15 16:00N 49°29' E 000°07'0 0.0
2018-Jun-15 15:30N 49°29' E 000°07'0 0.0
2018-Jun-15 15:00N 49°29' E 000°07'0 0.0
2018-Jun-15 14:30N 49°29' E 000°07'0 0.0
2018-Jun-15 14:00N 49°29' E 000°07'0 0.0
2018-Jun-15 13:30N 49°29' E 000°07'0 0.0
2018-Jun-15 13:00N 49°29' E 000°07'0 0.0
2018-Jun-15 12:30N 49°29' E 000°07'0 0.0
2018-Jun-15 12:00N 49°29' E 000°07'0 0.0
2018-Jun-15 11:30N 49°29' E 000°07'0 0.0
2018-Jun-15 11:01N 49°29' E 000°07'0 0.0
2018-Jun-15 10:30N 49°29' E 000°07'0 0.0
2018-Jun-15 10:00N 49°29' E 000°07'0 0.0
2018-Jun-15 09:30N 49°29' E 000°07'0 0.0
2018-Jun-15 09:00N 49°29' E 000°07'0 0.0
2018-Jun-15 08:30N 49°29' E 000°07'0 0.0
2018-Jun-15 08:00N 49°29' E 000°07'0 0.0
2018-Jun-15 07:30N 49°29' E 000°07'0 0.0
2018-Jun-15 07:00N 49°29' E 000°07'0 0.0
2018-Jun-15 06:30N 49°29' E 000°07'2 4.4
2018-Jun-15 06:00N 49°30' E 000°03'816.9
2018-Jun-15 05:30N 49°37' W 000°04'917.6
2018-Jun-15 05:00N 49°44' W 000°10'917.8
2018-Jun-15 04:30N 49°52' W 000°17'611.6
2018-Jun-15 04:00N 49°57' W 000°21'510.6
2018-Jun-15 03:30N 50°02' W 000°25'611.2
2018-Jun-15 03:00N 50°07' W 000°30'2710.6
2018-Jun-15 00:25N 50°31' W 000°50'410.7
2018-Jun-15 00:00N 50°35' W 000°53'612.5
2018-Jun-14 23:30N 50°41' W 000°57'714.9
2018-Jun-14 23:00N 50°46' W 001°05'3 5.8
2018-Jun-14 22:31N 50°49' W 001°06'0 0.0
2018-Jun-14 22:01N 50°49' W 001°06'0 0.0
2018-Jun-14 21:31N 50°49' W 001°06'0 0.0
2018-Jun-14 21:00N 50°49' W 001°06'0 0.0
2018-Jun-14 20:31N 50°49' W 001°06'0 0.0
2018-Jun-14 20:00N 50°49' W 001°06'1 2.5
2018-Jun-14 19:31N 50°48' W 001°07'612.6
2018-Jun-14 19:01N 50°43' W 000°60'713.3
2018-Jun-14 18:30N 50°36' W 001°02'5720.3
2018-Jun-14 15:41N 50°01' W 002°12'518.9
2018-Jun-14 15:26N 49°58' W 002°18'818.7
2018-Jun-14 15:00N 49°55' W 002°30'918.7
2018-Jun-14 14:30N 49°52' W 002°44'918.5
2018-Jun-14 14:00N 49°46' W 002°55'1218.7
2018-Jun-14 13:21N 49°38' W 003°10'7318.9
2018-Jun-14 09:30N 48°48' W 004°29'814.0
2018-Jun-14 08:58N 48°43' W 004°39'817.3
2018-Jun-14 08:30N 48°38' W 004°47'918.4
2018-Jun-14 08:01N 48°31' W 004°56'815.9
2018-Jun-14 07:30N 48°25' W 005°04'918.3
2018-Jun-14 07:00N 48°16' W 005°08'6419.3
2018-Jun-14 03:41N 47°14' W 004°46'420.8
2018-Jun-14 03:30N 47°10' W 004°45'1120.8
2018-Jun-14 02:59N 46°60' W 004°41'1620.7
2018-Jun-14 02:14N 46°45' W 004°33'520.8
2018-Jun-14 02:00N 46°40' W 004°32'1020.8
2018-Jun-14 01:30N 46°30' W 004°28'1121.1
2018-Jun-14 01:00N 46°20' W 004°25'16120.0
2018-Jun-13 16:56N 43°46' W 003°15'817.9
2018-Jun-13 16:30N 43°39' W 003°12'917.9
2018-Jun-13 16:00N 43°30' W 003°08'917.7
2018-Jun-13 15:30N 43°22' W 003°04'1 1.9
2018-Jun-13 15:00N 43°21' W 003°04'0 0.0
2018-Jun-13 14:30N 43°21' W 003°04'0 0.0
2018-Jun-13 14:00N 43°21' W 003°04'0 0.0
2018-Jun-13 13:30N 43°21' W 003°04'0 0.0
2018-Jun-13 13:00N 43°21' W 003°04'0 0.0
2018-Jun-13 12:30N 43°21' W 003°04'0 0.9
2018-Jun-13 12:01N 43°21' W 003°04'611.9
2018-Jun-13 11:30N 43°27' W 003°07'918.3
2018-Jun-13 11:00N 43°36' W 003°10'1019.6
2018-Jun-13 10:30N 43°45' W 003°14'1019.1
2018-Jun-13 10:00N 43°54' W 003°18'16319.4
2018-Jun-13 01:36N 46°29' W 004°30'318.6
2018-Jun-13 01:25N 46°32' W 004°31'1820.2
2018-Jun-13 00:31N 46°50' W 004°38'320.0
2018-Jun-13 00:23N 46°53' W 004°39'1719.6
2018-Jun-12 23:30N 47°09' W 004°45'3218.8
2018-Jun-12 21:47N 47°40' W 004°59'818.6
2018-Jun-12 21:21N 47°48' W 005°03'819.3
2018-Jun-12 20:56N 47°55' W 005°07'819.5
2018-Jun-12 20:30N 48°03' W 005°10'1019.7
2018-Jun-12 20:00N 48°13' W 005°08'1121.2
2018-Jun-12 19:30N 48°24' W 005°05'917.5
2018-Jun-12 19:00N 48°30' W 004°57'1020.3
2018-Jun-12 18:30N 48°38' W 004°46'1019.5
2018-Jun-12 18:00N 48°45' W 004°37'1019.2
2018-Jun-12 17:30N 48°52' W 004°27'1118.4
2018-Jun-12 16:53N 49°01' W 004°16'5317.8
2018-Jun-12 13:56N 49°42' W 003°25'1020.8
2018-Jun-12 13:28N 49°50' W 003°16'1121.8
2018-Jun-12 12:59N 49°57' W 003°04'1122.5
2018-Jun-12 12:30N 50°01' W 002°48'3222.0
2018-Jun-12 11:02N 50°14' W 002°02'121.6
2018-Jun-12 10:58N 50°15' W 002°00'1021.0
2018-Jun-12 10:30N 50°19' W 001°47'1020.3
2018-Jun-12 10:00N 50°24' W 001°33'1019.5
2018-Jun-12 09:30N 50°29' W 001°20'918.6
2018-Jun-12 09:00N 50°35' W 001°08'815.3
2018-Jun-12 08:30N 50°41' W 001°03'712.9
2018-Jun-12 08:00N 50°47' W 001°07'1 2.7
2018-Jun-12 07:30N 50°49' W 001°06'0 0.0
2018-Jun-12 07:00N 50°49' W 001°06'0 0.0
2018-Jun-12 06:30N 50°49' W 001°06'0 0.0
2018-Jun-12 06:00N 50°49' W 001°06'0 0.0
2018-Jun-12 05:30N 50°49' W 001°06'0 0.0
2018-Jun-12 05:00N 50°49' W 001°06'0 0.0
2018-Jun-12 04:30N 50°49' W 001°06'0 0.0
2018-Jun-12 04:00N 50°49' W 001°06'0 0.0
2018-Jun-12 03:30N 50°49' W 001°06'0 0.0
2018-Jun-12 03:00N 50°49' W 001°06'0 0.0
2018-Jun-12 02:30N 50°49' W 001°06'0 0.0
2018-Jun-12 02:00N 50°49' W 001°06'0 0.0
2018-Jun-12 01:30N 50°49' W 001°06'0 0.0
2018-Jun-12 01:00N 50°49' W 001°06'0 0.0
2018-Jun-12 00:30N 50°49' W 001°06'0 0.0
2018-Jun-12 00:00N 50°49' W 001°06'0 0.0
2018-Jun-11 23:30N 50°49' W 001°06'0 0.0
2018-Jun-11 23:00N 50°49' W 001°06'0 0.0
2018-Jun-11 22:30N 50°49' W 001°06'0 0.0
2018-Jun-11 22:00N 50°49' W 001°06'0 0.0
2018-Jun-11 21:30N 50°49' W 001°06'0 0.0
2018-Jun-11 21:00N 50°49' W 001°06'0 0.0
2018-Jun-11 20:30N 50°49' W 001°06'0 0.0
2018-Jun-11 20:00N 50°49' W 001°06'1 2.2
2018-Jun-11 19:30N 50°48' W 001°07'510.0
2018-Jun-11 19:00N 50°43' W 001°03'815.3
2018-Jun-11 18:30N 50°36' W 001°07'918.7
2018-Jun-11 18:01N 50°29' W 001°16'918.9
2018-Jun-11 17:30N 50°23' W 001°28'1019.2
2018-Jun-11 17:01N 50°17' W 001°40'1020.0
2018-Jun-11 16:30N 50°11' W 001°52'1120.1
2018-Jun-11 15:58N 50°04' W 002°05'1219.5
2018-Jun-11 15:20N 49°58' W 002°21'619.3
2018-Jun-11 15:00N 49°55' W 002°30'1019.1
2018-Jun-11 14:30N 49°51' W 002°44'2018.6
2018-Jun-11 13:24N 49°39' W 003°09'718.4
2018-Jun-11 13:01N 49°34' W 003°18'6418.8
2018-Jun-11 09:35N 48°50' W 004°29'319.0
2018-Jun-11 09:27N 48°48' W 004°32'818.8
2018-Jun-11 09:00N 48°42' W 004°41'918.1
2018-Jun-11 08:30N 48°35' W 004°50'816.8
2018-Jun-11 08:00N 48°29' W 004°58'815.2
2018-Jun-11 07:31N 48°23' W 005°05'917.7
2018-Jun-11 07:01N 48°14' W 005°08'918.2
2018-Jun-11 06:30N 48°05' W 005°10'1417.6
2018-Jun-11 05:43N 47°52' W 005°05'25118.9
2018-Jun-10 16:25N 43°46' W 003°50'819.0
2018-Jun-10 16:00N 43°38' W 003°47'8 1.7
2018-Jun-10 11:36N 43°31' W 003°45'219.1
2018-Jun-10 11:30N 43°33' W 003°46'1019.2
2018-Jun-10 11:00N 43°42' W 003°48'16419.1
2018-Jun-10 02:25N 46°23' W 004°37'818.4
2018-Jun-10 02:00N 46°30' W 004°39'1618.7
2018-Jun-10 01:08N 46°46' W 004°43'519.1
2018-Jun-10 00:54N 46°51' W 004°45'718.8
2018-Jun-10 00:30N 46°58' W 004°47'1218.9
2018-Jun-09 23:53N 47°10' W 004°50'919.0
2018-Jun-09 23:26N 47°18' W 004°53'2319.1
2018-Jun-09 22:15N 47°40' W 005°02'919.4
2018-Jun-09 21:48N 47°48' W 005°04'719.1
2018-Jun-09 21:27N 47°55' W 005°06'1018.5
2018-Jun-09 20:54N 48°05' W 005°10'819.0
2018-Jun-09 20:30N 48°12' W 005°08'1019.6
2018-Jun-09 20:01N 48°22' W 005°06'  

Dump ship's entire track history